createdAt,value
2017-02-01T00:00:19.330Z,21.14
2017-02-01T00:01:19.346Z,21.17
2017-02-01T00:02:18.981Z,21.16
2017-02-01T00:03:19.001Z,21.17
2017-02-01T00:04:19.276Z,21.17
2017-02-01T00:05:19.058Z,21.13
2017-02-01T00:06:19.477Z,21.1
2017-02-01T00:07:19.107Z,21.1
2017-02-01T00:08:19.536Z,21.1
2017-02-01T00:09:19.564Z,21.17
2017-02-01T00:10:19.193Z,21.12
2017-02-01T00:11:18.830Z,21.13
2017-02-01T00:12:19.246Z,21.1
2017-02-01T00:13:19.667Z,21.12
2017-02-01T00:14:19.700Z,21.04
2017-02-01T00:15:19.325Z,21.07
2017-02-01T00:16:19.750Z,21.07
2017-02-01T00:17:18.981Z,21.04
2017-02-01T00:18:19.411Z,21.09
2017-02-01T00:19:19.832Z,21.04
2017-02-01T00:20:19.470Z,21.03
2017-02-01T00:21:19.887Z,20.99
2017-02-01T00:22:19.910Z,20.98
2017-02-01T00:23:19.936Z,21.06
2017-02-01T00:24:19.967Z,21.07
2017-02-01T00:25:20.240Z,20.95
2017-02-01T00:26:19.623Z,20.97
2017-02-01T00:27:19.644Z,21.12
2017-02-01T00:28:19.685Z,20.97
2017-02-01T00:29:19.699Z,20.99
2017-02-01T00:30:19.976Z,20.97
2017-02-01T00:31:19.757Z,20.97
2017-02-01T00:32:19.781Z,20.94
2017-02-01T00:33:19.810Z,21.01
2017-02-01T00:34:20.234Z,20.98
2017-02-01T00:35:20.121Z,21.04
2017-02-01T00:36:20.284Z,20.91
2017-02-01T00:37:20.315Z,20.88
2017-02-01T00:38:19.548Z,20.88
2017-02-01T00:39:19.965Z,20.94
2017-02-01T00:40:20.895Z,20.94
2017-02-01T00:41:20.432Z,20.97
2017-02-01T00:42:20.452Z,20.98
2017-02-01T00:43:20.478Z,21.01
2017-02-01T00:44:20.502Z,20.91
2017-02-01T00:45:20.378Z,20.88
2017-02-01T00:46:20.556Z,20.87
2017-02-01T00:47:20.189Z,20.87
2017-02-01T00:48:20.600Z,20.88
2017-02-01T00:49:20.643Z,20.88
2017-02-01T00:50:20.518Z,20.88
2017-02-01T00:51:20.299Z,20.88
2017-02-01T00:52:20.707Z,20.84
2017-02-01T00:53:20.736Z,20.82
2017-02-01T00:54:20.769Z,20.88
2017-02-01T00:55:20.902Z,20.89
2017-02-01T00:56:20.423Z,20.92
2017-02-01T00:57:20.451Z,20.87
2017-02-01T00:58:20.476Z,20.87
2017-02-01T00:59:20.505Z,20.74
2017-02-01T01:00:21.181Z,20.76
2017-02-01T01:01:20.587Z,20.79
2017-02-01T01:02:20.976Z,20.7
2017-02-01T01:03:20.607Z,20.74
2017-02-01T01:04:20.637Z,20.69
2017-02-01T01:05:20.917Z,20.77
2017-02-01T01:06:20.298Z,20.77
2017-02-01T01:07:21.123Z,20.74
2017-02-01T01:08:20.738Z,20.8
2017-02-01T01:09:20.764Z,20.72
2017-02-01T01:10:21.070Z,20.7
2017-02-01T01:11:20.826Z,20.72
2017-02-01T01:12:20.854Z,20.7
2017-02-01T01:13:20.879Z,20.66
2017-02-01T01:14:21.295Z,20.73
2017-02-01T01:15:21.326Z,20.72
2017-02-01T01:16:21.220Z,20.73
2017-02-01T01:17:20.585Z,20.7
2017-02-01T01:18:21.009Z,20.76
2017-02-01T01:19:20.635Z,20.76
2017-02-01T01:20:21.067Z,20.67
2017-02-01T01:21:21.336Z,20.74
2017-02-01T01:22:20.717Z,20.72
2017-02-01T01:23:21.142Z,20.67
2017-02-01T01:24:21.174Z,20.76
2017-02-01T01:25:21.587Z,20.73
2017-02-01T01:26:22.119Z,20.64
2017-02-01T01:27:21.336Z,20.69
2017-02-01T01:28:21.668Z,20.72
2017-02-01T01:29:21.697Z,20.64
2017-02-01T01:30:21.327Z,20.64
2017-02-01T01:31:21.351Z,20.66
2017-02-01T01:32:21.382Z,20.59
2017-02-01T01:33:21.011Z,20.66
2017-02-01T01:34:21.432Z,20.64
2017-02-01T01:35:21.461Z,20.66
2017-02-01T01:36:21.878Z,20.59
2017-02-01T01:37:21.516Z,20.64
2017-02-01T01:38:21.939Z,20.69
2017-02-01T01:39:21.969Z,20.64
2017-02-01T01:40:21.990Z,20.62
2017-02-01T01:41:21.621Z,20.62
2017-02-01T01:42:21.650Z,20.61
2017-02-01T01:43:21.665Z,20.58
2017-02-01T01:44:22.091Z,20.55
2017-02-01T01:45:21.720Z,20.54
2017-02-01T01:46:22.147Z,20.64
2017-02-01T01:47:22.424Z,20.55
2017-02-01T01:48:21.411Z,20.55
2017-02-01T01:49:22.230Z,20.54
2017-02-01T01:50:22.248Z,20.55
2017-02-01T01:51:22.271Z,20.61
2017-02-01T01:52:22.160Z,20.61
2017-02-01T01:53:22.332Z,20.64
2017-02-01T01:54:22.357Z,20.51
2017-02-01T01:55:21.986Z,20.54
2017-02-01T01:56:22.019Z,20.57
2017-02-01T01:57:22.291Z,20.52
2017-02-01T01:58:22.460Z,20.61
2017-02-01T01:59:22.497Z,20.48
2017-02-01T02:00:22.521Z,20.57
2017-02-01T02:01:22.543Z,20.51
2017-02-01T02:02:22.818Z,20.58
2017-02-01T02:03:22.596Z,20.5
2017-02-01T02:04:22.232Z,20.51
2017-02-01T02:05:22.249Z,20.41
2017-02-01T02:06:22.276Z,20.51
2017-02-01T02:07:22.954Z,20.54
2017-02-01T02:08:22.331Z,20.51
2017-02-01T02:09:22.360Z,20.42
2017-02-01T02:10:22.384Z,20.43
2017-02-01T02:11:22.819Z,20.48
2017-02-01T02:12:22.694Z,20.47
2017-02-01T02:13:22.470Z,20.47
2017-02-01T02:14:22.887Z,20.47
2017-02-01T02:15:22.521Z,20.42
2017-02-01T02:16:22.546Z,20.5
2017-02-01T02:17:23.226Z,20.39
2017-02-01T02:18:22.603Z,20.52
2017-02-01T02:19:22.622Z,20.5
2017-02-01T02:20:22.651Z,20.43
2017-02-01T02:21:23.071Z,20.48
2017-02-01T02:22:22.956Z,20.43
2017-02-01T02:23:22.338Z,20.47
2017-02-01T02:24:22.754Z,20.42
2017-02-01T02:25:22.782Z,20.38
2017-02-01T02:26:23.211Z,20.42
2017-02-01T02:27:23.485Z,20.38
2017-02-01T02:28:23.253Z,20.43
2017-02-01T02:29:22.898Z,20.42
2017-02-01T02:30:23.310Z,20.48
2017-02-01T02:31:23.343Z,20.36
2017-02-01T02:32:23.252Z,20.39
2017-02-01T02:33:22.988Z,20.47
2017-02-01T02:34:22.625Z,20.41
2017-02-01T02:35:23.046Z,20.36
2017-02-01T02:36:22.712Z,20.39
2017-02-01T02:37:23.100Z,20.31
2017-02-01T02:38:23.123Z,20.35
2017-02-01T02:39:22.760Z,20.38
2017-02-01T02:40:23.579Z,20.39
2017-02-01T02:41:23.604Z,20.31
2017-02-01T02:42:23.628Z,20.38
2017-02-01T02:43:23.257Z,20.33
2017-02-01T02:44:23.285Z,20.36
2017-02-01T02:45:23.315Z,20.32
2017-02-01T02:46:23.339Z,20.32
2017-02-01T02:47:23.364Z,20.38
2017-02-01T02:48:23.786Z,20.36
2017-02-01T02:49:23.418Z,20.31
2017-02-01T02:50:23.437Z,20.36
2017-02-01T02:51:23.876Z,20.33
2017-02-01T02:52:23.104Z,20.31
2017-02-01T02:53:23.784Z,20.39
2017-02-01T02:54:23.158Z,20.33
2017-02-01T02:55:23.975Z,20.36
2017-02-01T02:56:23.207Z,20.29
2017-02-01T02:57:23.624Z,20.38
2017-02-01T02:58:24.304Z,20.32
2017-02-01T02:59:23.677Z,20.28
2017-02-01T03:00:23.308Z,20.33
2017-02-01T03:01:23.339Z,20.29
2017-02-01T03:02:24.160Z,20.26
2017-02-01T03:03:24.287Z,20.31
2017-02-01T03:04:24.211Z,20.28
2017-02-01T03:05:24.242Z,20.29
2017-02-01T03:06:24.263Z,20.26
2017-02-01T03:07:24.280Z,20.38
2017-02-01T03:08:24.173Z,20.28
2017-02-01T03:09:24.343Z,20.31
2017-02-01T03:10:24.370Z,20.31
2017-02-01T03:11:24.396Z,20.18
2017-02-01T03:12:23.625Z,20.31
2017-02-01T03:13:24.305Z,20.24
2017-02-01T03:14:24.477Z,20.26
2017-02-01T03:15:24.504Z,20.23
2017-02-01T03:16:24.523Z,20.21
2017-02-01T03:17:24.162Z,20.23
2017-02-01T03:18:24.437Z,20.26
2017-02-01T03:19:24.611Z,20.16
2017-02-01T03:20:24.632Z,20.14
2017-02-01T03:21:24.268Z,20.24
2017-02-01T03:22:23.892Z,20.21
2017-02-01T03:23:24.573Z,20.14
2017-02-01T03:24:24.771Z,20.18
2017-02-01T03:25:24.368Z,20.18
2017-02-01T03:26:24.005Z,20.26
2017-02-01T03:27:24.822Z,20.16
2017-02-01T03:28:24.705Z,20.2
2017-02-01T03:29:24.471Z,20.14
2017-02-01T03:30:24.500Z,20.17
2017-02-01T03:31:24.922Z,20.16
2017-02-01T03:32:24.553Z,20.18
2017-02-01T03:33:24.983Z,20.17
2017-02-01T03:34:24.217Z,20.13
2017-02-01T03:35:24.637Z,20.24
2017-02-01T03:36:24.653Z,20.14
2017-02-01T03:37:24.690Z,20.23
2017-02-01T03:38:25.114Z,20.24
2017-02-01T03:39:24.749Z,20.2
2017-02-01T03:40:24.788Z,20.21
2017-02-01T03:41:24.789Z,20.17
2017-02-01T03:42:24.824Z,20.21
2017-02-01T03:43:25.239Z,20.17
2017-02-01T03:44:25.516Z,20.2
2017-02-01T03:45:24.899Z,20.18
2017-02-01T03:46:25.325Z,20.16
2017-02-01T03:47:24.958Z,20.17
2017-02-01T03:48:25.371Z,20.13
2017-02-01T03:49:25.258Z,20.16
2017-02-01T03:50:25.029Z,20.18
2017-02-01T03:51:25.455Z,20.14
2017-02-01T03:52:24.680Z,20.1
2017-02-01T03:53:25.103Z,20.16
2017-02-01T03:54:24.992Z,20.14
2017-02-01T03:55:25.556Z,20.16
2017-02-01T03:56:25.590Z,20.14
2017-02-01T03:57:25.611Z,20.16
2017-02-01T03:58:25.642Z,20.17
2017-02-01T03:59:25.523Z,20.13
2017-02-01T04:00:24.923Z,20.05
2017-02-01T04:01:25.318Z,20.13
2017-02-01T04:02:25.742Z,20.13
2017-02-01T04:03:25.767Z,20.05
2017-02-01T04:04:26.049Z,19.98
2017-02-01T04:05:25.425Z,20.1
2017-02-01T04:06:25.458Z,20.1
2017-02-01T04:07:25.478Z,20.02
2017-02-01T04:08:25.896Z,19.95
2017-02-01T04:09:25.794Z,20.05
2017-02-01T04:10:25.953Z,20.01
2017-02-01T04:11:25.587Z,20.05
2017-02-01T04:12:25.610Z,20.02
2017-02-01T04:13:25.239Z,20.05
2017-02-01T04:14:25.512Z,20.06
2017-02-01T04:15:26.086Z,20.02
2017-02-01T04:16:26.113Z,20.06
2017-02-01T04:17:25.741Z,20.05
2017-02-01T04:18:25.773Z,20.08
2017-02-01T04:19:26.041Z,20.1
2017-02-01T04:20:25.826Z,20.08
2017-02-01T04:21:26.241Z,20.11
2017-02-01T04:22:26.262Z,19.98
2017-02-01T04:23:25.900Z,20.08
2017-02-01T04:24:26.178Z,20.03
2017-02-01T04:25:25.946Z,20.06
2017-02-01T04:26:26.376Z,20.05
2017-02-01T04:27:26.007Z,20.05
2017-02-01T04:28:25.645Z,20.06
2017-02-01T04:29:26.451Z,20.08
2017-02-01T04:30:26.078Z,20.11
2017-02-01T04:31:26.105Z,20.05
2017-02-01T04:32:26.535Z,20.05
2017-02-01T04:33:26.561Z,20.06
2017-02-01T04:34:26.193Z,20.03
2017-02-01T04:35:26.204Z,20.08
2017-02-01T04:36:25.842Z,20.02
2017-02-01T04:37:26.267Z,20.02
2017-02-01T04:38:26.295Z,20.03
2017-02-01T04:39:26.318Z,20.06
2017-02-01T04:40:26.345Z,20.03
2017-02-01T04:41:26.366Z,20.01
2017-02-01T04:42:26.393Z,20.01
2017-02-01T04:43:26.029Z,20.05
2017-02-01T04:44:26.849Z,20.05
2017-02-01T04:45:27.127Z,19.95
2017-02-01T04:46:26.898Z,20.01
2017-02-01T04:47:26.563Z,19.95
2017-02-01T04:48:26.556Z,19.96
2017-02-01T04:49:26.972Z,19.95
2017-02-01T04:50:27.253Z,20.01
2017-02-01T04:51:26.638Z,20.08
2017-02-01T04:52:27.051Z,20.02
2017-02-01T04:53:26.688Z,19.98
2017-02-01T04:54:26.717Z,19.94
2017-02-01T04:55:27.024Z,19.94
2017-02-01T04:56:27.163Z,19.99
2017-02-01T04:57:26.799Z,20.02
2017-02-01T04:58:26.811Z,19.96
2017-02-01T04:59:26.848Z,19.94
2017-02-01T05:00:27.373Z,20.01
2017-02-01T05:01:26.890Z,19.96
2017-02-01T05:02:27.319Z,19.94
2017-02-01T05:03:26.940Z,20.02
2017-02-01T05:04:26.975Z,19.91
2017-02-01T05:05:27.248Z,19.95
2017-02-01T05:06:27.426Z,19.96
2017-02-01T05:07:27.443Z,19.95
2017-02-01T05:08:27.479Z,19.99
2017-02-01T05:09:27.500Z,19.95
2017-02-01T05:10:27.387Z,19.98
2017-02-01T05:11:26.765Z,19.96
2017-02-01T05:12:27.590Z,20.02
2017-02-01T05:13:26.811Z,19.96
2017-02-01T05:14:27.236Z,19.99
2017-02-01T05:15:27.909Z,20.01
2017-02-01T05:16:26.888Z,19.95
2017-02-01T05:17:27.712Z,19.98
2017-02-01T05:18:27.740Z,19.95
2017-02-01T05:19:27.368Z,19.99
2017-02-01T05:20:27.394Z,19.95
2017-02-01T05:21:27.426Z,20.06
2017-02-01T05:22:27.450Z,20.03
2017-02-01T05:23:27.868Z,20.02
2017-02-01T05:24:27.100Z,20.03
2017-02-01T05:25:27.524Z,20.02
2017-02-01T05:26:27.157Z,20.06
2017-02-01T05:27:27.582Z,20.08
2017-02-01T05:28:28.001Z,20.06
2017-02-01T05:29:28.026Z,20.08
2017-02-01T05:30:27.654Z,20.08
2017-02-01T05:31:27.681Z,20.03
2017-02-01T05:32:27.710Z,20.01
2017-02-01T05:33:28.135Z,20.14
2017-02-01T05:34:27.763Z,20.13
2017-02-01T05:35:28.182Z,20.2
2017-02-01T05:36:28.208Z,20.18
2017-02-01T05:37:28.253Z,20.26
2017-02-01T05:38:28.263Z,20.17
2017-02-01T05:39:28.287Z,20.21
2017-02-01T05:40:27.517Z,20.21
2017-02-01T05:41:28.219Z,20.21
2017-02-01T05:42:28.362Z,20.24
2017-02-01T05:43:28.000Z,20.29
2017-02-01T05:44:28.415Z,20.21
2017-02-01T05:45:28.444Z,20.29
2017-02-01T05:46:28.723Z,20.28
2017-02-01T05:47:28.497Z,20.35
2017-02-01T05:48:28.526Z,20.33
2017-02-01T05:49:28.151Z,20.36
2017-02-01T05:50:28.179Z,20.35
2017-02-01T05:51:28.858Z,20.41
2017-02-01T05:52:28.246Z,20.39
2017-02-01T05:53:28.269Z,20.43
2017-02-01T05:54:28.693Z,20.42
2017-02-01T05:55:28.314Z,20.48
2017-02-01T05:56:28.196Z,20.47
2017-02-01T05:57:28.758Z,20.51
2017-02-01T05:58:27.987Z,20.58
2017-02-01T05:59:28.818Z,20.52
2017-02-01T06:00:28.878Z,20.52
2017-02-01T06:01:29.119Z,20.64
2017-02-01T06:02:28.492Z,20.58
2017-02-01T06:03:28.928Z,20.59
2017-02-01T06:04:28.542Z,20.61
2017-02-01T06:05:28.578Z,20.59
2017-02-01T06:06:28.851Z,20.7
2017-02-01T06:07:29.018Z,20.58
2017-02-01T06:08:28.653Z,20.73
2017-02-01T06:09:29.082Z,20.62
2017-02-01T06:10:29.107Z,20.59
2017-02-01T06:11:28.990Z,20.62
2017-02-01T06:12:29.144Z,20.74
2017-02-01T06:13:29.173Z,20.77
2017-02-01T06:14:29.210Z,20.7
2017-02-01T06:15:29.234Z,20.73
2017-02-01T06:16:29.365Z,20.76
2017-02-01T06:17:28.879Z,20.79
2017-02-01T06:18:29.320Z,20.79
2017-02-01T06:19:29.336Z,20.76
2017-02-01T06:20:28.971Z,20.84
2017-02-01T06:21:29.256Z,20.79
2017-02-01T06:22:29.418Z,20.88
2017-02-01T06:23:29.451Z,20.92
2017-02-01T06:24:29.470Z,20.84
2017-02-01T06:25:28.712Z,20.85
2017-02-01T06:26:29.386Z,20.82
2017-02-01T06:27:29.542Z,20.85
2017-02-01T06:28:29.579Z,20.94
2017-02-01T06:29:29.600Z,20.89
2017-02-01T06:30:29.632Z,20.92
2017-02-01T06:31:29.909Z,20.97
2017-02-01T06:32:29.286Z,21.04
2017-02-01T06:33:29.709Z,20.89
2017-02-01T06:34:29.338Z,20.89
2017-02-01T06:35:29.370Z,20.97
2017-02-01T06:36:29.402Z,20.98
2017-02-01T06:37:29.820Z,21.04
2017-02-01T06:38:29.445Z,21.01
2017-02-01T06:39:29.471Z,20.97
2017-02-01T06:40:29.503Z,21.01
2017-02-01T06:41:29.928Z,20.89
2017-02-01T06:42:29.551Z,20.98
2017-02-01T06:43:29.577Z,20.95
2017-02-01T06:44:29.611Z,20.95
2017-02-01T06:45:30.028Z,20.95
2017-02-01T06:46:29.655Z,20.95
2017-02-01T06:47:29.535Z,20.95
2017-02-01T06:48:29.713Z,20.95
2017-02-01T06:49:30.132Z,20.98
2017-02-01T06:50:29.770Z,20.99
2017-02-01T06:51:29.791Z,20.95
2017-02-01T06:52:30.067Z,20.94
2017-02-01T06:53:29.454Z,20.98
2017-02-01T06:54:29.865Z,20.97
2017-02-01T06:55:29.898Z,20.97
2017-02-01T06:56:29.925Z,20.95
2017-02-01T06:57:30.199Z,20.95
2017-02-01T06:58:29.982Z,20.95
2017-02-01T06:59:30.399Z,20.97
2017-02-01T07:00:29.629Z,20.92
2017-02-01T07:01:30.448Z,20.94
2017-02-01T07:02:30.734Z,20.98
2017-02-01T07:03:30.506Z,20.92
2017-02-01T07:04:30.136Z,20.99
2017-02-01T07:05:30.553Z,20.98
2017-02-01T07:06:30.585Z,20.99
2017-02-01T07:07:30.326Z,21.03
2017-02-01T07:08:29.853Z,20.91
2017-02-01T07:09:30.267Z,20.95
2017-02-01T07:10:30.692Z,20.92
2017-02-01T07:11:29.929Z,20.98
2017-02-01T07:12:30.602Z,20.92
2017-02-01T07:13:30.777Z,21.03
2017-02-01T07:14:30.405Z,20.97
2017-02-01T07:15:30.820Z,20.87
2017-02-01T07:16:30.453Z,20.87
2017-02-01T07:17:30.337Z,20.92
2017-02-01T07:18:30.942Z,20.95
2017-02-01T07:19:30.138Z,20.95
2017-02-01T07:20:30.171Z,20.88
2017-02-01T07:21:30.592Z,20.94
2017-02-01T07:22:31.130Z,20.95
2017-02-01T07:23:30.246Z,20.91
2017-02-01T07:24:30.671Z,20.97
2017-02-01T07:25:30.696Z,20.92
2017-02-01T07:26:31.120Z,21.01
2017-02-01T07:27:31.004Z,20.99
2017-02-01T07:28:31.165Z,20.94
2017-02-01T07:29:30.810Z,20.88
2017-02-01T07:30:30.828Z,21.03
2017-02-01T07:31:31.254Z,20.98
2017-02-01T07:32:31.132Z,20.97
2017-02-01T07:33:31.298Z,20.97
2017-02-01T07:34:30.542Z,21.03
2017-02-01T07:35:30.563Z,20.99
2017-02-01T07:36:31.000Z,20.95
2017-02-01T07:37:30.617Z,20.94
2017-02-01T07:38:31.442Z,20.98
2017-02-01T07:39:31.466Z,20.99
2017-02-01T07:40:31.492Z,20.88
2017-02-01T07:41:31.516Z,20.95
2017-02-01T07:42:31.153Z,20.98
2017-02-01T07:43:31.165Z,20.94
2017-02-01T07:44:31.593Z,21.01
2017-02-01T07:45:31.622Z,20.95
2017-02-01T07:46:31.655Z,20.94
2017-02-01T07:47:31.683Z,20.88
2017-02-01T07:48:30.909Z,20.87
2017-02-01T07:49:31.734Z,20.87
2017-02-01T07:50:31.358Z,20.85
2017-02-01T07:51:31.388Z,20.87
2017-02-01T07:52:31.805Z,20.91
2017-02-01T07:53:31.052Z,20.89
2017-02-01T07:54:31.862Z,20.89
2017-02-01T07:55:31.495Z,20.89
2017-02-01T07:56:31.920Z,20.88
2017-02-01T07:57:31.940Z,20.88
2017-02-01T07:58:32.220Z,20.88
2017-02-01T07:59:31.206Z,20.91
2017-02-01T08:00:31.230Z,20.89
2017-02-01T08:01:31.655Z,20.91
2017-02-01T08:02:31.680Z,20.88
2017-02-01T08:03:31.564Z,20.88
2017-02-01T08:04:31.587Z,20.91
2017-02-01T08:05:32.169Z,20.89
2017-02-01T08:06:31.791Z,20.88
2017-02-01T08:07:31.807Z,20.85
2017-02-01T08:08:32.493Z,20.89
2017-02-01T08:09:32.266Z,20.88
2017-02-01T08:10:32.286Z,20.85
2017-02-01T08:11:32.315Z,20.85
2017-02-01T08:12:31.955Z,20.85
2017-02-01T08:13:32.477Z,20.82
2017-02-01T08:14:32.397Z,20.82
2017-02-01T08:15:32.423Z,20.82
2017-02-01T08:16:31.659Z,20.87
2017-02-01T08:17:32.510Z,20.76
2017-02-01T08:18:32.356Z,20.73
2017-02-01T08:19:32.136Z,20.85
2017-02-01T08:20:32.594Z,20.87
2017-02-01T08:21:32.578Z,20.84
2017-02-01T08:22:32.212Z,20.77
2017-02-01T08:23:32.492Z,20.77
2017-02-01T08:24:32.259Z,20.82
2017-02-01T08:25:32.695Z,20.8
2017-02-01T08:26:32.719Z,20.76
2017-02-01T08:27:32.347Z,20.79
2017-02-01T08:28:33.272Z,20.8
2017-02-01T08:29:32.436Z,20.72
2017-02-01T08:30:32.030Z,20.8
2017-02-01T08:31:32.058Z,20.76
2017-02-01T08:32:32.083Z,20.7
2017-02-01T08:33:32.512Z,20.76
2017-02-01T08:34:32.932Z,20.73
2017-02-01T08:35:32.958Z,20.73
2017-02-01T08:36:32.599Z,20.76
2017-02-01T08:37:33.007Z,20.7
2017-02-01T08:38:33.042Z,20.7
2017-02-01T08:39:32.670Z,20.8
2017-02-01T08:40:32.696Z,20.7
2017-02-01T08:41:32.713Z,20.7
2017-02-01T08:42:32.746Z,20.76
2017-02-01T08:43:33.166Z,20.7
2017-02-01T08:44:33.051Z,20.7
2017-02-01T08:45:32.833Z,20.72
2017-02-01T08:46:33.246Z,20.66
2017-02-01T08:47:32.906Z,20.76
2017-02-01T08:48:32.910Z,20.66
2017-02-01T08:49:33.436Z,20.7
2017-02-01T08:50:33.352Z,20.73
2017-02-01T08:51:32.988Z,20.69
2017-02-01T08:52:33.009Z,20.61
2017-02-01T08:53:32.661Z,20.72
2017-02-01T08:54:33.976Z,20.64
2017-02-01T08:55:32.696Z,20.66
2017-02-01T08:56:33.122Z,20.69
2017-02-01T08:57:33.145Z,20.73
2017-02-01T08:58:33.174Z,20.59
2017-02-01T08:59:33.594Z,20.72
2017-02-01T09:00:33.223Z,20.64
2017-02-01T09:01:32.849Z,20.61
2017-02-01T09:02:33.673Z,20.7
2017-02-01T09:03:33.702Z,20.64
2017-02-01T09:04:33.727Z,20.61
2017-02-01T09:05:33.754Z,20.55
2017-02-01T09:06:33.383Z,20.59
2017-02-01T09:07:33.015Z,20.66
2017-02-01T09:08:33.444Z,20.62
2017-02-01T09:09:33.860Z,20.66
2017-02-01T09:10:33.918Z,20.67
2017-02-01T09:11:33.914Z,20.66
2017-02-01T09:12:33.539Z,20.59
2017-02-01T09:13:33.965Z,20.62
2017-02-01T09:14:33.621Z,20.64
2017-02-01T09:15:33.234Z,20.64
2017-02-01T09:16:33.652Z,20.59
2017-02-01T09:17:34.068Z,20.57
2017-02-01T09:18:33.321Z,20.61
2017-02-01T09:19:34.124Z,20.59
2017-02-01T09:20:33.760Z,20.58
2017-02-01T09:21:33.774Z,20.58
2017-02-01T09:22:34.203Z,20.55
2017-02-01T09:23:33.436Z,20.57
2017-02-01T09:24:33.862Z,20.54
2017-02-01T09:25:34.530Z,20.55
2017-02-01T09:26:33.514Z,20.62
2017-02-01T09:27:34.335Z,20.52
2017-02-01T09:28:34.366Z,20.58
2017-02-01T09:29:33.998Z,20.55
2017-02-01T09:30:33.874Z,20.55
2017-02-01T09:31:34.045Z,20.54
2017-02-01T09:32:34.466Z,20.52
2017-02-01T09:33:34.494Z,20.57
2017-02-01T09:34:33.727Z,20.61
2017-02-01T09:35:34.006Z,20.57
2017-02-01T09:36:34.178Z,20.52
2017-02-01T09:37:33.817Z,20.51
2017-02-01T09:38:34.638Z,20.47
2017-02-01T09:39:34.259Z,20.51
2017-02-01T09:40:34.932Z,20.54
2017-02-01T09:41:34.306Z,20.42
2017-02-01T09:42:34.730Z,20.55
2017-02-01T09:43:34.762Z,20.54
2017-02-01T09:44:34.787Z,20.48
2017-02-01T09:45:35.063Z,20.48
2017-02-01T09:46:34.041Z,20.48
2017-02-01T09:47:34.874Z,20.5
2017-02-01T09:48:34.494Z,20.5
2017-02-01T09:49:34.535Z,20.47
2017-02-01T09:50:34.404Z,20.43
2017-02-01T09:51:34.180Z,20.48
2017-02-01T09:52:34.994Z,20.43
2017-02-01T09:53:34.627Z,20.52
2017-02-01T09:54:35.051Z,20.47
2017-02-01T09:55:35.180Z,20.51
2017-02-01T09:56:34.709Z,20.5
2017-02-01T09:57:35.130Z,20.47
2017-02-01T09:58:34.768Z,20.5
2017-02-01T09:59:34.387Z,20.41
2017-02-01T10:00:34.416Z,20.51
2017-02-01T10:01:34.448Z,20.48
2017-02-01T10:02:34.869Z,20.41
2017-02-01T10:03:34.894Z,20.47
2017-02-01T10:04:34.919Z,20.43
2017-02-01T10:05:35.340Z,20.43
2017-02-01T10:06:35.373Z,20.48
2017-02-01T10:07:35.393Z,20.5
2017-02-01T10:08:35.453Z,20.48
2017-02-01T10:09:35.448Z,20.43
2017-02-01T10:10:35.483Z,20.48
2017-02-01T10:11:35.104Z,20.38
2017-02-01T10:12:35.529Z,20.36
2017-02-01T10:13:34.757Z,20.41
2017-02-01T10:14:35.191Z,20.38
2017-02-01T10:15:35.215Z,20.41
2017-02-01T10:16:35.633Z,20.5
2017-02-01T10:17:35.661Z,20.39
2017-02-01T10:18:35.291Z,20.38
2017-02-01T10:19:35.318Z,20.35
2017-02-01T10:20:35.736Z,20.41
2017-02-01T10:21:35.768Z,20.36
2017-02-01T10:22:35.001Z,20.36
2017-02-01T10:23:35.822Z,20.33
2017-02-01T10:24:35.852Z,20.38
2017-02-01T10:25:35.866Z,20.38
2017-02-01T10:26:35.904Z,20.38
2017-02-01T10:27:35.132Z,20.36
2017-02-01T10:28:35.162Z,20.39
2017-02-01T10:29:35.191Z,20.36
2017-02-01T10:30:36.015Z,20.38
2017-02-01T10:31:35.888Z,20.41
2017-02-01T10:32:35.665Z,20.42
2017-02-01T10:33:35.692Z,20.36
2017-02-01T10:34:36.109Z,20.38
2017-02-01T10:35:35.741Z,20.39
2017-02-01T10:36:36.056Z,20.39
2017-02-01T10:37:36.205Z,20.39
2017-02-01T10:38:35.848Z,20.35
2017-02-01T10:39:35.852Z,20.36
2017-02-01T10:40:36.279Z,20.39
2017-02-01T10:41:36.152Z,20.36
2017-02-01T10:42:36.328Z,20.36
2017-02-01T10:43:36.345Z,20.36
2017-02-01T10:44:35.975Z,20.39
2017-02-01T10:45:36.403Z,20.36
2017-02-01T10:46:36.927Z,20.36
2017-02-01T10:47:36.066Z,20.35
2017-02-01T10:48:36.085Z,20.47
2017-02-01T10:49:35.717Z,20.41
2017-02-01T10:50:36.138Z,20.38
2017-02-01T10:51:36.018Z,20.36
2017-02-01T10:52:36.611Z,20.39
2017-02-01T10:53:36.613Z,20.41
2017-02-01T10:54:36.646Z,20.36
2017-02-01T10:55:36.266Z,20.36
2017-02-01T10:56:36.947Z,20.39
2017-02-01T10:57:36.732Z,20.38
2017-02-01T10:58:35.943Z,20.38
2017-02-01T10:59:36.378Z,20.36
2017-02-01T11:00:36.805Z,20.32
2017-02-01T11:01:36.034Z,20.36
2017-02-01T11:02:36.476Z,20.36
2017-02-01T11:03:36.092Z,20.39
2017-02-01T11:04:36.911Z,20.35
2017-02-01T11:05:36.534Z,20.38
2017-02-01T11:06:36.563Z,20.32
2017-02-01T11:07:36.624Z,20.32
2017-02-01T11:08:37.013Z,20.33
2017-02-01T11:09:36.636Z,20.33
2017-02-01T11:10:36.679Z,20.35
2017-02-01T11:11:36.298Z,20.32
2017-02-01T11:12:36.323Z,20.41
2017-02-01T11:13:36.751Z,20.36
2017-02-01T11:14:36.768Z,20.41
2017-02-01T11:15:36.801Z,20.35
2017-02-01T11:16:36.833Z,20.39
2017-02-01T11:17:36.851Z,20.35
2017-02-01T11:18:37.263Z,20.36
2017-02-01T11:19:36.908Z,20.35
2017-02-01T11:20:37.324Z,20.32
2017-02-01T11:21:37.353Z,20.36
2017-02-01T11:22:36.984Z,20.36
2017-02-01T11:23:37.405Z,20.35
2017-02-01T11:24:36.635Z,20.29
2017-02-01T11:25:37.460Z,20.36
2017-02-01T11:26:37.088Z,20.36
2017-02-01T11:27:37.367Z,20.33
2017-02-01T11:28:36.741Z,20.32
2017-02-01T11:29:37.566Z,20.33
2017-02-01T11:30:37.591Z,20.33
2017-02-01T11:31:37.612Z,20.33
2017-02-01T11:32:37.905Z,20.33
2017-02-01T11:33:37.672Z,20.32
2017-02-01T11:34:37.696Z,20.24
2017-02-01T11:35:37.321Z,20.26
2017-02-01T11:36:37.351Z,20.28
2017-02-01T11:37:38.279Z,20.31
2017-02-01T11:38:37.438Z,20.31
2017-02-01T11:39:37.821Z,20.29
2017-02-01T11:40:37.861Z,20.28
2017-02-01T11:41:37.081Z,20.29
2017-02-01T11:42:37.518Z,20.29
2017-02-01T11:43:37.935Z,20.29
2017-02-01T11:44:37.964Z,20.24
2017-02-01T11:45:37.988Z,20.28
2017-02-01T11:46:37.617Z,20.26
2017-02-01T11:47:37.642Z,20.33
2017-02-01T11:48:37.667Z,20.31
2017-02-01T11:49:38.091Z,20.23
2017-02-01T11:50:38.124Z,20.26
2017-02-01T11:51:37.752Z,20.29
2017-02-01T11:52:38.177Z,20.29
2017-02-01T11:53:37.802Z,20.28
2017-02-01T11:54:37.831Z,20.35
2017-02-01T11:55:37.850Z,20.28
2017-02-01T11:56:37.884Z,20.28
2017-02-01T11:57:37.905Z,20.31
2017-02-01T11:58:38.577Z,20.23
2017-02-01T11:59:37.962Z,20.29
2017-02-01T12:00:38.387Z,20.24
2017-02-01T12:01:38.412Z,20.29
2017-02-01T12:02:38.430Z,20.24
2017-02-01T12:03:38.317Z,20.21
2017-02-01T12:04:38.099Z,20.24
2017-02-01T12:05:38.117Z,20.23
2017-02-01T12:06:38.142Z,20.21
2017-02-01T12:07:38.167Z,20.26
2017-02-01T12:08:38.053Z,20.21
2017-02-01T12:09:38.624Z,20.26
2017-02-01T12:10:37.849Z,20.18
2017-02-01T12:11:37.877Z,20.26
2017-02-01T12:12:38.693Z,20.28
2017-02-01T12:13:38.970Z,20.13
2017-02-01T12:14:38.747Z,20.14
2017-02-01T12:15:37.990Z,20.26
2017-02-01T12:16:38.412Z,20.23
2017-02-01T12:17:38.826Z,20.26
2017-02-01T12:18:38.309Z,20.21
2017-02-01T12:19:38.483Z,20.18
2017-02-01T12:20:38.507Z,20.14
2017-02-01T12:21:38.535Z,20.17
2017-02-01T12:22:38.556Z,20.17
2017-02-01T12:23:38.841Z,20.2
2017-02-01T12:24:38.216Z,20.2
2017-02-01T12:25:38.638Z,20.17
2017-02-01T12:26:39.070Z,20.14
2017-02-01T12:27:38.298Z,20.13
2017-02-01T12:28:39.363Z,20.16
2017-02-01T12:29:39.155Z,20.21
2017-02-01T12:30:39.161Z,20.24
2017-02-01T12:31:39.198Z,20.24
2017-02-01T12:32:39.222Z,20.17
2017-02-01T12:33:38.703Z,20.21
2017-02-01T12:34:39.270Z,20.2
2017-02-01T12:35:38.504Z,20.14
2017-02-01T12:36:39.332Z,20.21
2017-02-01T12:37:38.957Z,20.18
2017-02-01T12:38:39.228Z,20.16
2017-02-01T12:39:39.010Z,20.2
2017-02-01T12:40:39.031Z,20.17
2017-02-01T12:41:38.669Z,20.17
2017-02-01T12:42:38.693Z,20.21
2017-02-01T12:43:39.371Z,20.24
2017-02-01T12:44:39.139Z,20.17
2017-02-01T12:45:39.560Z,20.23
2017-02-01T12:46:39.592Z,20.18
2017-02-01T12:47:39.213Z,20.17
2017-02-01T12:48:38.847Z,20.21
2017-02-01T12:49:39.526Z,20.18
2017-02-01T12:50:39.691Z,20.11
2017-02-01T12:51:39.324Z,20.21
2017-02-01T12:52:39.747Z,20.26
2017-02-01T12:53:39.771Z,20.14
2017-02-01T12:54:39.910Z,20.17